Time;durP1;ratioP1;P1;durP2;ratioP2;P2;SDS_P1;SDS_P2;PMS_P1;PMS_P2;Temp;Humidity;BMP_temperature;BMP_pressure;BME280_temperature;BME280_humidity;BME280_pressure;Samples;Min_cycle;Max_cycle;Signal;HPM_P1;HPM_P2
2021/12/24 00:00:36;;;;;;;26.30;8.93;;;;;;;-9.84;70.30;99649.73;1739749;80;21072;-47
2021/12/24 00:03:03;;;;;;;29.73;10.30;;;;;;;-9.82;70.32;99641.55;1738167;80;20943;-48
2021/12/24 00:05:29;;;;;;;31.20;10.80;;;;;;;-9.79;70.33;99635.56;1737263;80;20975;-46
2021/12/24 00:07:56;;;;;;;23.07;7.97;;;;;;;-9.77;70.31;99633.86;1740101;80;21062;-49
2021/12/24 00:10:22;;;;;;;24.17;9.83;;;;;;;-9.74;70.28;99624.43;1735301;80;21147;-50
2021/12/24 00:12:57;;;;;;;30.77;11.67;;;;;;;-9.73;70.31;99624.02;1736779;80;21055;-47
2021/12/24 00:16:06;;;;;;;27.10;8.97;;;;;;;-9.70;70.29;99621.52;1741794;80;21048;-49
2021/12/24 00:17:45;;;;;;;20.43;8.00;;;;;;;-9.68;70.25;99612.00;1715703;80;21093;-48
2021/12/24 00:20:40;;;;;;;16.40;6.63;;;;;;;-9.69;70.22;99616.73;1740623;80;21070;-51
2021/12/24 00:36:17;;;;;;;18.27;6.17;;;;;;;-9.58;70.26;99584.96;1735091;80;21319;-50
2021/12/24 00:38:43;;;;;;;12.33;5.00;;;;;;;-9.57;70.29;99580.64;1738950;80;21730;-50
2021/12/24 00:41:09;;;;;;;12.87;4.40;;;;;;;-9.56;70.30;99578.50;1734097;80;21694;-49
2021/12/24 00:43:35;;;;;;;16.60;6.30;;;;;;;-9.55;70.24;99572.45;1737331;80;21708;-47
2021/12/24 00:46:02;;;;;;;20.00;7.63;;;;;;;-9.53;70.21;99566.87;1738167;80;21094;-48
2021/12/24 00:48:28;;;;;;;17.17;6.90;;;;;;;-9.52;70.14;99562.09;1741538;80;21113;-47
2021/12/24 00:51:17;;;;;;;16.90;5.40;;;;;;;-9.51;70.10;99559.95;1743855;80;21055;-47
2021/12/24 00:56:05;;;;;;;15.23;5.77;;;;;;;-9.50;70.02;99542.19;1741925;80;22354;-51
2021/12/24 00:58:33;;;;;;;14.18;6.37;;;;;;;-9.50;69.99;99533.06;1745406;80;20889;-48
2021/12/24 01:01:00;;;;;;;14.97;5.57;;;;;;;-9.50;69.93;99526.55;1746522;80;22382;-49
2021/12/24 01:03:27;;;;;;;12.87;5.47;;;;;;;-9.52;69.89;99517.80;1745249;80;21237;-50
2021/12/24 01:05:53;;;;;;;10.20;4.50;;;;;;;-9.53;69.87;99512.57;1742198;80;20932;-49
2021/12/24 01:08:21;;;;;;;16.40;5.77;;;;;;;-9.53;69.83;99508.25;1747467;80;22346;-48
2021/12/24 01:10:57;;;;;;;13.67;4.57;;;;;;;-9.53;69.83;99509.97;1743120;80;21067;-48
2021/12/24 01:13:26;;;;;;;17.83;6.10;;;;;;;-9.54;69.83;99503.88;1744020;80;21118;-47
2021/12/24 01:16:06;;;;;;;13.97;5.53;;;;;;;-9.54;69.81;99500.38;1743541;80;20979;-49
2021/12/24 01:21:12;;;;;;;11.97;3.50;;;;;;;-9.53;69.78;99491.73;1710133;80;21152;-49
2021/12/24 01:25:59;;;;;;;6.67;2.27;;;;;;;-9.57;69.73;99482.52;1744891;80;21429;-52
2021/12/24 01:28:46;;;;;;;11.73;3.77;;;;;;;-9.57;69.72;99480.33;1745832;80;20967;-51
2021/12/24 01:39:26;;;;;;;10.10;3.63;;;;;;;-9.56;69.73;99443.02;1738988;80;21147;-51
2021/12/24 01:44:35;;;;;;;9.10;4.00;;;;;;;-9.53;69.58;99425.29;1740115;80;21145;-50
2021/12/24 01:47:07;;;;;;;4.30;1.83;;;;;;;-9.54;69.51;99420.50;1743217;80;21479;-50
2021/12/24 01:49:35;;;;;;;7.27;3.00;;;;;;;-9.53;69.47;99420.08;1743956;80;20952;-48
2021/12/24 01:52:03;;;;;;;12.33;2.70;;;;;;;-9.57;69.37;99409.56;1745408;80;21064;-50
2021/12/24 01:54:30;;;;;;;7.23;3.13;;;;;;;-9.59;69.34;99406.03;1719330;80;20877;-47
2021/12/24 01:56:57;;;;;;;8.27;2.90;;;;;;;-9.62;69.32;99404.67;1747898;80;20936;-50
2021/12/24 01:59:23;;;;;;;9.67;3.10;;;;;;;-9.62;69.25;99398.58;1741299;80;21019;-47
2021/12/24 02:01:50;;;;;;;7.83;3.07;;;;;;;-9.64;69.29;99393.73;1747862;80;21307;-50
2021/12/24 02:04:17;;;;;;;10.50;3.27;;;;;;;-9.64;69.24;99379.41;1746061;80;21166;-49
2021/12/24 02:06:44;;;;;;;11.30;3.50;;;;;;;-9.68;69.25;99373.23;1742776;80;20990;-47
2021/12/24 02:09:10;;;;;;;6.00;2.07;;;;;;;-9.69;69.27;99365.37;1744615;80;20956;-50
2021/12/24 02:11:38;;;;;;;10.03;3.10;;;;;;;-9.70;69.21;99370.15;1743316;80;20881;-47
2021/12/24 02:14:10;;;;;;;5.60;2.63;;;;;;;-9.73;69.22;99363.13;1743229;80;20884;-48
2021/12/24 02:30:14;;;;;;;;;;;;;;;-9.79;69.25;99316.52;1739800;80;22464;-51
2021/12/24 02:32:42;;;;;;;8.70;2.37;;;;;;;-9.83;69.28;99314.66;1738397;80;20274;-49
2021/12/24 02:35:09;;;;;;;9.10;2.30;;;;;;;-9.83;69.34;99315.97;1741551;80;21017;-49
2021/12/24 02:37:36;;;;;;;8.87;2.97;;;;;;;-9.85;69.42;99313.73;1729908;80;21642;-48
2021/12/24 02:40:04;;;;;;;11.27;3.60;;;;;;;-9.85;69.42;99308.53;1740170;80;22172;-48
2021/12/24 02:42:31;;;;;;;6.33;2.03;;;;;;;-9.86;69.43;99305.04;1741115;80;21586;-49
2021/12/24 02:44:57;;;;;;;8.07;2.90;;;;;;;-9.84;69.42;99302.06;1735257;80;21078;-49
2021/12/24 02:55:09;;;;;;;9.87;3.20;;;;;;;-9.83;69.45;99300.34;1744058;80;21180;-47
2021/12/24 02:57:37;;;;;;;6.80;2.70;;;;;;;-9.83;69.47;99292.11;1735282;80;21044;-48
2021/12/24 03:00:14;;;;;;;11.80;3.13;;;;;;;-9.80;69.45;99288.71;1738226;80;21623;-50
2021/12/24 03:02:39;;;;;;;9.57;2.57;;;;;;;-9.80;69.43;99287.41;1733079;80;20979;-47
2021/12/24 03:05:06;;;;;;;6.20;2.23;;;;;;;-9.79;69.41;99281.36;1737715;80;21103;-49
2021/12/24 03:07:34;;;;;;;7.10;2.63;;;;;;;-9.80;69.39;99271.36;1732461;80;21118;-48
2021/12/24 03:10:04;;;;;;;7.93;2.10;;;;;;;-9.82;69.46;99269.13;1733632;80;21122;-47
2021/12/24 03:12:32;;;;;;;6.70;2.17;;;;;;;-9.82;69.49;99255.23;1738845;80;20940;-47
2021/12/24 03:14:58;;;;;;;7.03;3.13;;;;;;;-9.82;69.47;99253.51;1734718;80;21051;-48
2021/12/24 03:17:26;;;;;;;6.97;2.23;;;;;;;-9.83;69.50;99246.95;1734283;80;21090;-47
2021/12/24 03:19:56;;;;;;;8.67;2.53;;;;;;;-9.84;69.53;99240.86;1736798;80;21152;-46
2021/12/24 03:25:06;;;;;;;6.42;2.12;;;;;;;-9.83;69.58;99236.12;1737920;80;21136;-48
2021/12/24 03:27:33;;;;;;;8.07;2.57;;;;;;;-9.85;69.58;99227.80;1746321;80;20921;-47
2021/12/24 03:29:59;;;;;;;5.50;1.43;;;;;;;-9.85;69.65;99219.98;1742190;80;21059;-49
2021/12/24 03:32:26;;;;;;;8.63;2.67;;;;;;;-9.86;69.69;99215.63;1735373;80;21061;-49
2021/12/24 03:34:52;;;;;;;6.50;2.33;;;;;;;-9.85;69.73;99203.95;1733473;80;21055;-49
2021/12/24 03:37:19;;;;;;;3.10;1.57;;;;;;;-9.82;69.72;99196.22;1733824;80;21066;-49
2021/12/24 03:39:46;;;;;;;6.20;1.87;;;;;;;-9.80;69.74;99191.05;1734578;80;22685;-52
2021/12/24 03:42:12;;;;;;;5.37;1.63;;;;;;;-9.79;69.84;99191.52;1734495;80;21585;-46
2021/12/24 03:44:44;;;;;;;7.37;2.13;;;;;;;-9.79;69.82;99184.58;1740886;80;21640;-47
2021/12/24 03:47:16;;;;;;;8.23;2.50;;;;;;;-9.76;69.80;99183.75;1741993;80;21043;-49
2021/12/24 03:54:57;;;;;;;4.23;1.77;;;;;;;-9.80;69.82;99175.42;1737350;80;21091;-48
2021/12/24 03:57:35;;;;;;;5.90;1.90;;;;;;;-9.80;69.80;99167.19;1739681;80;21426;-51
2021/12/24 04:00:27;;;;;;;6.15;1.95;;;;;;;-9.80;69.81;99163.28;1738097;80;21642;-51
2021/12/24 04:03:01;;;;;;;3.13;1.30;;;;;;;-9.80;69.82;99155.47;1684418;80;21609;-50
2021/12/24 04:05:43;;;;;;;5.43;2.07;;;;;;;-9.81;69.83;99153.70;1735793;80;21038;-47
2021/12/24 04:08:28;;;;;;;4.73;1.63;;;;;;;-9.82;69.87;99147.16;1731850;80;21110;-50
2021/12/24 04:10:57;;;;;;;5.93;2.03;;;;;;;-9.84;69.90;99136.70;1731147;80;23398;-48
2021/12/24 04:13:27;;;;;;;6.90;1.93;;;;;;;-9.82;69.88;99134.14;1736268;80;21004;-47
2021/12/24 04:15:54;;;;;;;10.47;3.03;;;;;;;-9.84;69.89;99127.59;1738126;80;20995;-51
2021/12/24 04:18:51;;;;;;;6.60;2.17;;;;;;;-9.86;69.92;99118.86;1740061;80;21067;-50
2021/12/24 04:26:19;;;;;;;4.83;1.80;;;;;;;-9.84;70.01;99097.64;1741903;80;20972;-50
2021/12/24 04:28:45;;;;;;;7.30;2.27;;;;;;;-9.82;69.95;99106.80;1738339;80;20956;-48
2021/12/24 04:31:12;;;;;;;5.47;2.30;;;;;;;-9.86;69.98;99099.75;1737184;80;20913;-49
2021/12/24 04:33:45;;;;;;;10.23;2.77;;;;;;;-9.86;70.00;99093.23;1740602;80;21470;-46
2021/12/24 04:39:12;;;;;;;6.10;3.13;;;;;;;-9.86;70.09;99078.91;1742125;80;20927;-50
2021/12/24 04:52:50;;;;;;;10.80;4.23;;;;;;;-9.76;70.14;99049.20;1743960;80;20893;-49
2021/12/24 05:03:26;;;;;;;7.33;2.73;;;;;;;-9.79;70.26;99037.44;1745203;80;22427;-50
2021/12/24 05:05:53;;;;;;;7.87;2.53;;;;;;;-9.79;70.31;99024.42;1714692;80;20967;-48
2021/12/24 05:08:23;;;;;;;11.50;3.33;;;;;;;-9.79;70.37;99029.62;1742565;80;20968;-47
2021/12/24 05:10:49;;;;;;;10.63;3.83;;;;;;;-9.79;70.42;99015.30;1743708;80;21318;-52
2021/12/24 05:13:18;;;;;;;9.40;2.33;;;;;;;-9.78;70.43;99019.64;1743660;80;21068;-51
2021/12/24 05:15:57;;;;;;;8.27;2.13;;;;;;;-9.76;70.49;99019.25;1732138;80;21150;-52
2021/12/24 05:19:01;;;;;;;10.00;3.40;;;;;;;-9.75;70.55;99017.53;1744724;80;21459;-50
2021/12/24 05:21:42;;;;;;;5.77;2.20;;;;;;;-9.76;70.65;99007.95;1748389;80;20928;-50
2021/12/24 05:24:07;;;;;;;6.37;2.07;;;;;;;-9.77;70.76;99007.08;1745837;80;20997;-51
2021/12/24 05:29:03;;;;;;;12.77;6.07;;;;;;;-9.66;70.95;99009.48;1862696;75;21968;-48
2021/12/24 05:31:30;;;;;;;6.30;2.67;;;;;;;-9.66;70.97;99005.57;1840431;77;21032;-51
2021/12/24 05:33:57;;;;;;;7.33;3.03;;;;;;;-9.65;71.05;98999.52;1847260;77;21188;-51
2021/12/24 05:36:23;;;;;;;8.83;2.73;;;;;;;-9.63;71.09;99000.86;1837504;77;20942;-48
2021/12/24 05:38:49;;;;;;;4.73;2.03;;;;;;;-9.59;71.16;99000.05;1840245;77;20969;-49
2021/12/24 05:41:18;;;;;;;7.13;2.77;;;;;;;-9.55;71.20;98994.06;1837334;77;21064;-49
2021/12/24 05:43:45;;;;;;;6.47;2.67;;;;;;;-9.50;71.27;98998.92;1841026;77;21026;-47
2021/12/24 05:46:13;;;;;;;5.67;2.07;;;;;;;-9.47;71.29;98993.78;1842547;77;21001;-48
2021/12/24 05:48:41;;;;;;;6.43;2.43;;;;;;;-9.43;71.30;98991.67;1839714;77;21163;-48
2021/12/24 05:51:09;;;;;;;9.03;1.50;;;;;;;-9.39;71.36;98995.22;1846520;77;20886;-47
2021/12/24 05:53:54;;;;;;;4.60;2.50;;;;;;;-9.35;71.41;98991.38;1844494;77;21088;-48
2021/12/24 05:56:22;;;;;;;5.80;2.17;;;;;;;-9.30;71.43;98996.70;1831667;76;21135;-48
2021/12/24 05:58:50;;;;;;;7.83;2.73;;;;;;;-9.27;71.42;99000.22;1814416;77;21113;-50
2021/12/24 06:01:18;;;;;;;6.40;2.20;;;;;;;-9.24;71.51;98995.49;1816399;77;21054;-49
2021/12/24 06:03:47;;;;;;;12.70;4.73;;;;;;;-9.19;71.56;98989.95;1816048;77;21096;-50
2021/12/24 06:06:14;;;;;;;6.40;2.00;;;;;;;-9.15;71.58;98990.45;1816514;77;20961;-49
2021/12/24 06:08:40;;;;;;;13.57;4.87;;;;;;;-9.11;71.64;98981.84;1815898;77;21023;-47
2021/12/24 06:11:06;;;;;;;8.00;2.57;;;;;;;-9.06;71.65;98984.52;1815044;77;21224;-51
2021/12/24 06:13:34;;;;;;;8.27;2.27;;;;;;;-9.02;71.71;98979.81;1813707;77;21041;-50
2021/12/24 06:16:02;;;;;;;22.17;8.50;;;;;;;-8.97;71.71;98979.45;1812023;77;21025;-49
2021/12/24 06:18:29;;;;;;;14.17;3.33;;;;;;;-8.94;71.72;98966.05;1813880;77;21060;-51
2021/12/24 06:21:00;;;;;;;11.37;4.17;;;;;;;-8.89;71.78;98962.20;1814798;77;21056;-48
2021/12/24 06:23:27;;;;;;;8.00;2.83;;;;;;;-8.85;71.83;98964.02;1816040;77;21099;-51
2021/12/24 06:25:55;;;;;;;8.67;2.93;;;;;;;-8.82;71.82;98945.36;1815826;77;20854;-49
2021/12/24 06:28:22;;;;;;;5.80;1.70;;;;;;;-8.77;71.84;98938.05;1818993;77;21333;-50
2021/12/24 06:30:48;;;;;;;3.63;1.33;;;;;;;-8.74;71.88;98941.56;1813950;77;21477;-50
2021/12/24 06:33:15;;;;;;;8.37;2.40;;;;;;;-8.70;71.90;98935.55;1811274;77;22596;-47
2021/12/24 06:35:41;;;;;;;7.47;2.80;;;;;;;-8.65;71.87;98930.39;1810946;77;21130;-48
2021/12/24 06:38:08;;;;;;;5.73;2.10;;;;;;;-8.60;71.87;98930.05;1812375;77;21053;-47
2021/12/24 06:40:35;;;;;;;9.43;2.90;;;;;;;-8.56;71.87;98929.22;1810586;77;21059;-51
2021/12/24 06:43:01;;;;;;;4.23;1.70;;;;;;;-8.53;71.87;98925.36;1809898;77;21099;-50
2021/12/24 06:45:28;;;;;;;9.73;2.77;;;;;;;-8.49;71.89;98916.27;1812345;77;21092;-48
2021/12/24 06:47:57;;;;;;;9.23;2.23;;;;;;;-8.42;71.87;98906.82;1811101;77;21074;-48
2021/12/24 06:50:24;;;;;;;5.60;2.20;;;;;;;-8.38;71.82;98900.77;1816534;77;20925;-50
2021/12/24 06:52:51;;;;;;;5.13;2.57;;;;;;;-8.33;71.79;98896.89;1814371;77;20898;-48
2021/12/24 06:55:19;;;;;;;7.20;2.40;;;;;;;-8.29;71.77;98886.92;1814354;77;20952;-47
2021/12/24 06:57:46;;;;;;;11.13;5.30;;;;;;;-8.25;71.74;98880.44;1812106;77;21037;-48
2021/12/24 07:00:17;;;;;;;6.40;1.73;;;;;;;-8.22;71.70;98878.30;1809494;77;21130;-48
2021/12/24 07:02:45;;;;;;;6.57;2.13;;;;;;;-8.17;71.70;98868.81;1782792;77;21721;-48
2021/12/24 07:05:12;;;;;;;5.43;2.60;;;;;;;-8.12;71.65;98871.03;1812938;77;21641;-51
2021/12/24 07:07:38;;;;;;;9.20;1.50;;;;;;;-8.08;71.63;98860.63;1815346;77;21029;-51
2021/12/24 07:10:05;;;;;;;8.07;2.53;;;;;;;-8.03;71.64;98855.47;1811979;77;21055;-51
2021/12/24 07:12:31;;;;;;;7.67;3.10;;;;;;;-8.01;71.54;98844.62;1811912;77;21721;-48
2021/12/24 07:14:57;;;;;;;4.40;2.20;;;;;;;-7.99;71.54;98831.58;1812464;77;21088;-49
2021/12/24 07:17:24;;;;;;;7.60;3.20;;;;;;;-7.95;71.54;98818.98;1814854;77;21009;-48
2021/12/24 07:19:50;;;;;;;3.63;1.73;;;;;;;-7.92;71.56;98829.47;1812400;77;21404;-48
2021/12/24 07:22:18;;;;;;;10.40;2.87;;;;;;;-7.91;71.55;98824.70;1811656;77;21034;-50
2021/12/24 07:24:45;;;;;;;7.47;2.73;;;;;;;-7.86;71.65;98826.48;1816146;77;21047;-48
2021/12/24 07:27:11;;;;;;;7.27;3.13;;;;;;;-7.81;71.67;98828.70;1815574;77;20933;-47
2021/12/24 07:29:38;;;;;;;4.73;2.23;;;;;;;-7.74;71.57;98825.73;1803129;77;20925;-47
2021/12/24 07:32:05;;;;;;;9.07;4.57;;;;;;;-7.71;71.49;98829.23;1803658;77;20878;-48
2021/12/24 07:34:32;;;;;;;8.53;3.60;;;;;;;-7.68;71.58;98827.97;1801979;77;20899;-49
2021/12/24 07:36:58;;;;;;;7.23;3.13;;;;;;;-7.64;71.63;98828.42;1806167;77;21080;-50
2021/12/24 07:39:25;;;;;;;5.70;2.27;;;;;;;-7.60;71.67;98811.48;1802863;77;20941;-50
2021/12/24 07:41:51;;;;;;;6.60;2.17;;;;;;;-7.57;71.63;98807.13;1803969;77;20946;-50
2021/12/24 07:44:18;;;;;;;5.43;2.50;;;;;;;-7.52;71.58;98800.66;1804518;77;20945;-47
2021/12/24 07:46:50;;;;;;;9.77;3.43;;;;;;;-7.48;71.60;98790.22;1803076;77;20895;-49
2021/12/24 07:52:08;;;;;;;7.70;2.97;;;;;;;-7.36;71.57;98765.48;1805475;77;21869;-50
2021/12/24 07:54:44;;;;;;;7.00;3.17;;;;;;;-7.31;71.59;98766.38;1804263;77;20906;-47
2021/12/24 07:57:14;;;;;;;6.37;2.30;;;;;;;-7.26;71.54;98763.81;1799977;77;21104;-47
2021/12/24 07:59:41;;;;;;;5.27;2.37;;;;;;;-7.21;71.60;98758.60;1805749;77;20926;-47
2021/12/24 08:02:14;;;;;;;6.63;2.77;;;;;;;-7.13;71.64;98751.67;1803248;77;21083;-48
2021/12/24 08:04:41;;;;;;;7.90;2.53;;;;;;;-7.06;71.53;98754.80;1803331;77;20989;-47
2021/12/24 08:07:08;;;;;;;6.60;2.67;;;;;;;-7.00;71.44;98754.39;1802256;77;20969;-49
2021/12/24 08:09:37;;;;;;;6.43;2.37;;;;;;;-6.97;71.46;98743.04;1798571;77;21528;-48
2021/12/24 08:12:08;;;;;;;7.33;2.67;;;;;;;-6.95;71.46;98738.27;1801757;77;21062;-48
2021/12/24 08:14:35;;;;;;;7.53;3.07;;;;;;;-6.91;71.45;98732.62;1802584;77;21451;-46
2021/12/24 08:17:02;;;;;;;5.20;2.73;;;;;;;-6.87;71.54;98723.91;1803556;77;20883;-49
2021/12/24 08:19:29;;;;;;;10.07;2.80;;;;;;;-6.83;71.49;98719.58;1799537;77;21075;-49
2021/12/24 08:21:57;;;;;;;6.43;2.10;;;;;;;-6.80;71.48;98713.91;1797140;77;20859;-50
2021/12/24 08:24:23;;;;;;;8.40;2.70;;;;;;;-6.75;71.61;98709.58;1803401;77;20906;-49
2021/12/24 08:26:49;;;;;;;5.40;2.73;;;;;;;-6.68;71.62;98706.11;1801409;77;21747;-48
2021/12/24 08:29:16;;;;;;;7.13;2.63;;;;;;;-6.62;71.59;98702.20;1807908;77;21141;-46
2021/12/24 08:31:43;;;;;;;6.17;2.07;;;;;;;-6.56;71.68;98705.30;1811572;77;21319;-47
2021/12/24 08:34:10;;;;;;;6.90;2.20;;;;;;;-6.51;71.78;98690.02;1814664;77;21367;-49
2021/12/24 08:36:37;;;;;;;5.33;2.03;;;;;;;-6.45;71.85;98683.91;1774929;78;21064;-48
2021/12/24 08:39:05;;;;;;;8.13;2.57;;;;;;;-6.38;71.83;98675.66;1779358;78;21095;-47
2021/12/24 08:41:31;;;;;;;6.37;2.60;;;;;;;-6.33;71.89;98669.98;1751463;80;21045;-47
2021/12/24 08:43:58;;;;;;;7.80;3.87;;;;;;;-6.26;71.86;98666.06;1777579;78;21291;-48
2021/12/24 08:46:24;;;;;;;5.83;2.83;;;;;;;-6.20;71.90;98660.82;1751881;80;21293;-50
2021/12/24 08:48:50;;;;;;;6.67;2.80;;;;;;;-6.17;71.96;98651.67;1777508;78;21472;-47
2021/12/24 08:51:16;;;;;;;9.50;5.00;;;;;;;-6.13;72.02;98650.81;1743757;80;21721;-47
2021/12/24 08:53:43;;;;;;;4.13;2.03;;;;;;;-6.07;72.10;98635.95;1750559;79;21696;-47
2021/12/24 08:56:09;;;;;;;5.53;1.47;;;;;;;-6.01;72.02;98630.27;1751593;79;21114;-47
2021/12/24 08:58:37;;;;;;;8.53;2.57;;;;;;;-5.96;72.01;98623.73;1774887;79;21033;-49
2021/12/24 09:01:04;;;;;;;3.90;2.10;;;;;;;-5.92;71.99;98613.23;1750218;79;21728;-46
2021/12/24 09:03:32;;;;;;;3.50;1.80;;;;;;;-5.87;72.02;98602.73;1751507;79;21827;-48
2021/12/24 09:05:59;;;;;;;5.77;1.87;;;;;;;-5.79;71.96;98598.34;1752573;79;21336;-50
2021/12/24 09:08:26;;;;;;;3.23;1.43;;;;;;;-5.72;71.89;98583.91;1753350;79;21040;-50
2021/12/24 09:10:52;;;;;;;3.23;1.30;;;;;;;-5.64;71.72;98579.08;1774079;78;21092;-48
2021/12/24 09:13:19;;;;;;;2.63;1.27;;;;;;;-5.61;71.66;98566.81;1777041;78;21116;-48
2021/12/24 09:15:45;;;;;;;5.20;1.73;;;;;;;-5.59;71.51;98558.95;1753739;80;21066;-47
2021/12/24 09:18:12;;;;;;;4.13;1.77;;;;;;;-5.58;71.50;98556.34;1781328;78;21036;-50
2021/12/24 09:20:42;;;;;;;7.13;2.20;;;;;;;-5.54;71.51;98544.98;1780928;78;21061;-47
2021/12/24 09:23:09;;;;;;;4.73;2.53;;;;;;;-5.48;71.53;98541.45;1782997;78;21434;-47
2021/12/24 09:25:36;;;;;;;3.30;1.40;;;;;;;-5.44;71.46;98538.79;1768904;79;21036;-48
2021/12/24 09:28:04;;;;;;;4.50;1.43;;;;;;;-5.42;71.45;98521.31;1775150;79;21045;-47
2021/12/24 09:30:31;;;;;;;7.07;6.37;;;;;;;-5.39;71.57;98514.75;1749072;79;21056;-48
2021/12/24 09:32:57;;;;;;;3.93;2.07;;;;;;;-5.37;71.64;98505.13;1750871;79;21061;-49
2021/12/24 09:35:25;;;;;;;2.80;1.20;;;;;;;-5.32;71.72;98510.34;1751048;79;21031;-46
2021/12/24 09:37:52;;;;;;;2.93;1.40;;;;;;;-5.29;71.71;98494.59;1773529;79;21526;-50
2021/12/24 09:40:19;;;;;;;4.63;2.00;;;;;;;-5.26;71.76;98494.56;1774476;79;22371;-48
2021/12/24 09:42:46;;;;;;;3.00;1.27;;;;;;;-5.25;71.84;98481.88;1773223;79;21566;-48
2021/12/24 09:45:12;;;;;;;3.37;1.87;;;;;;;-5.20;71.98;98481.87;1775085;79;21100;-47
2021/12/24 09:47:40;;;;;;;6.57;3.53;;;;;;;-5.15;72.18;98477.45;1775713;79;22500;-47
2021/12/24 09:50:08;;;;;;;5.00;2.70;;;;;;;-5.05;72.37;98480.45;1774119;79;21617;-47
2021/12/24 09:52:39;;;;;;;4.93;1.57;;;;;;;-4.96;72.39;98472.52;1773214;79;22354;-47
2021/12/24 09:55:12;;;;;;;3.40;1.10;;;;;;;-4.89;72.29;98461.53;1776219;79;21080;-49
2021/12/24 09:57:42;;;;;;;3.23;1.70;;;;;;;-4.86;72.28;98464.14;1774164;79;21044;-48
2021/12/24 10:00:11;;;;;;;3.13;1.67;;;;;;;-4.85;72.03;98465.89;1775398;79;21072;-48
2021/12/24 10:02:44;;;;;;;3.90;1.50;;;;;;;-4.86;71.98;98453.65;1776542;79;20946;-48
2021/12/24 10:06:32;;;;;;;3.40;1.67;;;;;;;-4.84;72.07;98438.73;1774536;78;25442;-48
2021/12/24 10:09:08;;;;;;;3.77;1.40;;;;;;;-4.89;72.02;98435.29;1735446;80;21069;-48
2021/12/24 10:11:56;;;;;;;3.37;2.47;;;;;;;-4.91;72.07;98431.80;1741912;80;22010;-48
2021/12/24 10:14:36;;;;;;;2.00;1.17;;;;;;;-4.88;72.21;98426.09;1741825;80;20934;-51
2021/12/24 10:17:05;;;;;;;2.10;1.17;;;;;;;-4.84;72.38;98427.80;1743323;80;21445;-48
2021/12/24 10:19:48;;;;;;;2.67;1.40;;;;;;;-4.80;72.37;98420.34;1738316;80;20938;-50
2021/12/24 10:22:15;;;;;;;5.17;2.27;;;;;;;-4.78;72.32;98409.83;1709626;81;21809;-51
2021/12/24 10:24:41;;;;;;;4.23;1.80;;;;;;;-4.79;72.30;98401.52;1709374;81;21103;-48
2021/12/24 10:27:07;;;;;;;2.20;1.33;;;;;;;-4.81;72.27;98397.59;1693414;83;20966;-49
2021/12/24 10:29:38;;;;;;;2.37;1.27;;;;;;;-4.82;72.29;98392.35;1691620;83;21062;-48
2021/12/24 10:32:18;;;;;;;2.93;1.20;;;;;;;-4.82;72.38;98388.41;1701187;82;21543;-48
2021/12/24 10:34:44;;;;;;;3.57;1.73;;;;;;;-4.81;72.38;98380.97;1706812;82;20919;-48
2021/12/24 10:37:18;;;;;;;7.80;3.33;;;;;;;-4.78;72.43;98371.77;1706493;82;21120;-49
2021/12/24 10:40:01;;;;;;;3.47;1.50;;;;;;;-4.77;72.41;98366.95;1705601;82;20958;-51
2021/12/24 10:42:36;;;;;;;1.80;1.30;;;;;;;-4.77;72.31;98344.20;1707990;82;20907;-48
2021/12/24 10:45:06;;;;;;;2.63;1.60;;;;;;;-4.78;72.33;98338.95;1702746;82;21495;-48
2021/12/24 10:47:38;;;;;;;2.97;1.57;;;;;;;-4.78;72.37;98342.45;1704785;82;20902;-48
2021/12/24 10:55:51;;;;;;;2.23;1.20;;;;;;;-4.76;72.47;98335.41;1705421;82;21447;-50
2021/12/24 10:58:19;;;;;;;3.43;1.80;;;;;;;-4.74;72.51;98326.20;1686938;84;20986;-49
2021/12/24 11:00:55;;;;;;;2.57;1.77;;;;;;;-4.73;72.53;98330.58;1687898;84;20994;-48
2021/12/24 11:03:27;;;;;;;4.27;1.80;;;;;;;-4.71;72.63;98318.31;1684689;84;21104;-50
2021/12/24 11:05:56;;;;;;;4.50;2.00;;;;;;;-4.68;72.61;98307.80;1682011;84;20998;-47
2021/12/24 11:08:26;;;;;;;2.63;1.67;;;;;;;-4.66;72.54;98307.31;1644779;84;21041;-48
2021/12/24 11:10:56;;;;;;;3.00;1.20;;;;;;;-4.64;72.61;98306.86;1669333;84;21046;-51
2021/12/24 11:13:38;;;;;;;4.43;1.77;;;;;;;-4.63;72.58;98295.47;1672215;84;21085;-50
2021/12/24 11:16:05;;;;;;;3.33;1.27;;;;;;;-4.65;72.58;98302.05;1672624;83;21283;-48
2021/12/24 11:18:38;;;;;;;5.87;1.50;;;;;;;-4.65;72.67;98291.98;1671076;84;21470;-50
2021/12/24 11:21:11;;;;;;;3.77;1.50;;;;;;;-4.63;72.78;98276.65;1670210;84;21091;-50
2021/12/24 11:23:40;;;;;;;2.30;1.67;;;;;;;-4.61;72.82;98285.39;1674950;84;21394;-51
2021/12/24 11:26:13;;;;;;;3.80;1.67;;;;;;;-4.61;72.87;98290.64;1672038;84;21002;-52
2021/12/24 11:28:40;;;;;;;4.50;2.53;;;;;;;-4.58;72.89;98293.20;1675331;84;21286;-50
2021/12/24 11:31:10;;;;;;;3.10;1.70;;;;;;;-4.55;72.96;98282.25;1669492;84;21060;-51
2021/12/24 11:33:40;;;;;;;3.97;1.93;;;;;;;-4.50;72.97;98290.48;1670517;84;20950;-52
2021/12/24 11:36:08;;;;;;;2.47;1.43;;;;;;;-4.47;72.97;98293.53;1671993;84;21018;-50
2021/12/24 11:38:38;;;;;;;3.27;1.40;;;;;;;-4.46;72.96;98280.39;1671530;84;21101;-49
2021/12/24 11:41:08;;;;;;;2.57;1.57;;;;;;;-4.45;72.95;98274.25;1671771;83;21779;-50
2021/12/24 11:43:36;;;;;;;3.80;1.67;;;;;;;-4.47;73.03;98263.33;1670265;84;21212;-49
2021/12/24 11:46:06;;;;;;;2.90;1.57;;;;;;;-4.49;73.07;98263.78;1675456;84;21321;-48
2021/12/24 11:48:33;;;;;;;3.03;1.40;;;;;;;-4.49;73.14;98255.91;1670978;84;21168;-49
2021/12/24 11:51:01;;;;;;;2.80;1.57;;;;;;;-4.47;73.22;98253.70;1670212;84;21144;-49
2021/12/24 11:53:28;;;;;;;4.13;2.27;;;;;;;-4.45;73.26;98242.73;1671749;84;21459;-48
2021/12/24 11:55:54;;;;;;;7.70;2.27;;;;;;;-4.42;73.37;98242.67;1671288;84;21105;-51
2021/12/24 11:58:24;;;;;;;3.50;1.80;;;;;;;-4.39;73.37;98241.78;1669974;84;21124;-49
2021/12/24 12:00:53;;;;;;;4.07;2.33;;;;;;;-4.36;73.29;98245.69;1670755;84;21515;-50
2021/12/24 12:03:37;;;;;;;3.70;2.07;;;;;;;-4.36;73.33;98237.81;1675124;83;20995;-52
2021/12/24 12:06:06;;;;;;;4.43;1.50;;;;;;;-4.36;73.36;98229.93;1671344;84;21776;-50
2021/12/24 12:08:39;;;;;;;3.37;1.90;;;;;;;-4.33;73.42;98231.18;1641713;84;21113;-49
2021/12/24 12:11:21;;;;;;;3.97;2.37;;;;;;;-4.31;73.44;98218.46;1647427;84;20986;-49
2021/12/24 12:14:01;;;;;;;3.03;1.87;;;;;;;-4.26;73.39;98212.72;1672005;84;21058;-50
2021/12/24 12:16:49;;;;;;;4.93;2.17;;;;;;;-4.25;73.39;98214.42;1670232;84;21468;-51
2021/12/24 12:19:37;;;;;;;2.53;1.77;;;;;;;-4.22;73.51;98209.58;1668224;84;22630;-50
2021/12/24 12:22:47;;;;;;;2.97;1.97;;;;;;;-4.23;73.42;98208.71;1666793;84;21133;-49
2021/12/24 12:25:06;;;;;;;4.77;2.80;;;;;;;-4.23;73.41;98203.45;1667514;84;21069;-49
2021/12/24 12:27:55;;;;;;;6.13;3.07;;;;;;;-4.21;73.46;98199.06;1669858;84;21125;-47
2021/12/24 12:30:52;;;;;;;10.50;5.73;;;;;;;-4.18;73.51;98200.78;1670154;84;21200;-49
2021/12/24 12:33:24;;;;;;;5.03;2.43;;;;;;;-4.15;73.48;98204.66;1667616;84;21174;-49
2021/12/24 12:35:56;;;;;;;5.17;2.93;;;;;;;-4.16;73.46;98202.92;1666586;84;20935;-48
2021/12/24 12:38:45;;;;;;;12.47;7.40;;;;;;;-4.17;73.47;98209.53;1661009;84;21152;-50
2021/12/24 12:41:32;;;;;;;7.22;4.45;;;;;;;-4.18;73.46;98218.30;1667761;84;21678;-49
2021/12/24 12:43:57;;;;;;;4.17;2.47;;;;;;;-4.20;73.51;98219.63;1670363;84;21121;-50
2021/12/24 12:46:31;;;;;;;5.70;2.50;;;;;;;-4.22;73.65;98210.89;1647410;84;21220;-49
2021/12/24 12:49:00;;;;;;;4.65;2.22;;;;;;;-4.22;73.67;98202.57;1671077;84;21284;-51
2021/12/24 12:51:57;;;;;;;3.60;1.90;;;;;;;-4.22;73.63;98191.19;1673103;84;21012;-52
2021/12/24 12:54:39;;;;;;;3.93;1.57;;;;;;;-4.19;73.63;98184.59;1674801;84;20907;-50
2021/12/24 12:57:32;;;;;;;3.33;1.63;;;;;;;-4.21;73.71;98171.47;1674327;84;20915;-49
2021/12/24 13:00:12;;;;;;;3.43;2.37;;;;;;;-4.22;73.75;98175.42;1669689;84;21139;-49
2021/12/24 13:05:41;;;;;;;3.60;2.00;;;;;;;-4.18;73.80;98160.50;1670226;84;21567;-50
2021/12/24 13:08:22;;;;;;;4.73;2.17;;;;;;;-4.18;73.81;98145.61;1660127;85;22242;-49
2021/12/24 13:11:03;;;;;;;5.07;1.80;;;;;;;-4.20;73.91;98136.43;1659161;85;20990;-51
2021/12/24 13:13:42;;;;;;;8.37;2.67;;;;;;;-4.20;73.89;98136.43;1662917;85;21126;-49
2021/12/24 13:16:16;;;;;;;6.67;1.83;;;;;;;-4.21;73.92;98124.18;1660945;85;20993;-50
2021/12/24 13:18:54;;;;;;;3.23;1.93;;;;;;;-4.21;74.02;98122.00;1666761;85;20910;-50
2021/12/24 13:24:12;;;;;;;4.47;1.77;;;;;;;-4.22;74.10;98104.05;1680378;84;20960;-51
2021/12/24 13:26:39;;;;;;;5.47;2.57;;;;;;;-4.21;74.08;98091.78;1672610;84;22566;-50
2021/12/24 13:29:23;;;;;;;3.30;2.17;;;;;;;-4.20;74.14;98090.89;1677991;84;21233;-48
2021/12/24 13:31:56;;;;;;;3.27;2.03;;;;;;;-4.17;74.19;98105.31;1677992;84;20927;-50